createdAt,value
2022-10-20T00:01:10.700Z,96545.41
2022-10-20T00:03:38.110Z,96544.97
2022-10-20T00:06:19.048Z,96543.16
2022-10-20T00:08:46.503Z,96540.91
2022-10-20T00:11:15.806Z,96544.25
2022-10-20T00:13:43.938Z,96544.88
2022-10-20T00:16:10.807Z,96540.78
2022-10-20T00:18:37.413Z,96541.03
2022-10-20T00:21:14.686Z,96537.38
2022-10-20T00:23:41.868Z,96540.47
2022-10-20T00:26:13.496Z,96537.66
2022-10-20T00:28:40.243Z,96540.44
2022-10-20T00:31:06.915Z,96545.94
2022-10-20T00:33:34.021Z,96538.75
2022-10-20T00:36:02.812Z,96538.38
2022-10-20T00:38:29.680Z,96545.72
2022-10-20T00:40:56.431Z,96538.56
2022-10-20T00:43:23.604Z,96535.28
2022-10-20T00:45:54.888Z,96533.91
2022-10-20T00:48:26.128Z,96535.91
2022-10-20T00:50:55.536Z,96527.31
2022-10-20T00:53:24.254Z,96521.03
2022-10-20T00:55:54.478Z,96517.31
2022-10-20T00:58:21.952Z,96523.44
2022-10-20T01:00:53.260Z,96514.72
2022-10-20T01:03:36.865Z,96512.69
2022-10-20T01:06:03.864Z,96516.75
2022-10-20T01:08:30.318Z,96516.81
2022-10-20T01:11:07.447Z,96503.69
2022-10-20T01:14:00.709Z,96506.97
2022-10-20T01:17:21.396Z,96507.41
2022-10-20T01:19:56.431Z,96503.78
2022-10-20T01:22:57.404Z,96489.06
2022-10-20T01:25:42.355Z,96488.25
2022-10-20T01:28:15.272Z,96498.88
2022-10-20T01:30:46.815Z,96500.75
2022-10-20T01:33:36.812Z,96495.66
2022-10-20T01:36:35.140Z,96491.97
2022-10-20T01:39:06.741Z,96479.72
2022-10-20T01:41:39.698Z,96474.41
2022-10-20T01:44:11.404Z,96457.66
2022-10-20T01:46:40.615Z,96457.66
2022-10-20T01:49:07.932Z,96446.81
2022-10-20T01:51:35.896Z,96451.94
2022-10-20T01:54:02.343Z,96454.38
2022-10-20T01:56:52.786Z,96437.84
2022-10-20T01:59:31.510Z,96437.66
2022-10-20T02:02:27.141Z,96436.00
2022-10-20T02:05:22.699Z,96438.25
2022-10-20T02:07:49.695Z,96437.22
2022-10-20T02:10:19.075Z,96435.41
2022-10-20T02:12:50.708Z,96429.47
2022-10-20T02:15:21.974Z,96433.16
2022-10-20T02:17:53.323Z,96426.63
2022-10-20T02:20:19.842Z,96422.53
2022-10-20T02:22:47.653Z,96430.25
2022-10-20T02:25:14.954Z,96435.19
2022-10-20T02:27:46.248Z,96435.56
2022-10-20T02:30:16.935Z,96440.50
2022-10-20T02:32:49.177Z,96435.41
2022-10-20T02:35:22.639Z,96428.03
2022-10-20T02:37:49.444Z,96433.13
2022-10-20T02:40:16.280Z,96433.13
2022-10-20T02:42:43.636Z,96429.06
2022-10-20T02:45:10.951Z,96423.53
2022-10-20T02:47:38.327Z,96429.25
2022-10-20T02:50:06.298Z,96429.81
2022-10-20T02:52:32.731Z,96427.59
2022-10-20T02:54:59.431Z,96427.00
2022-10-20T02:57:26.762Z,96419.84
2022-10-20T02:59:53.106Z,96425.38
2022-10-20T03:02:19.444Z,96419.25
2022-10-20T03:04:46.226Z,96422.72
2022-10-20T03:07:12.575Z,96422.75
2022-10-20T03:09:38.866Z,96426.63
2022-10-20T03:12:05.992Z,96419.69
2022-10-20T03:14:32.314Z,96418.25
2022-10-20T03:16:58.651Z,96414.78
2022-10-20T03:19:24.992Z,96423.97
2022-10-20T03:21:51.343Z,96418.88
2022-10-20T03:24:17.667Z,96419.47
2022-10-20T03:26:44.595Z,96409.25
2022-10-20T03:29:10.916Z,96404.38
2022-10-20T03:31:37.304Z,96405.38
2022-10-20T03:34:04.122Z,96405.78
2022-10-20T03:36:31.532Z,96406.59
2022-10-20T03:38:57.839Z,96409.25
2022-10-20T03:41:24.182Z,96401.72
2022-10-20T03:43:51.079Z,96402.72
2022-10-20T03:46:17.505Z,96403.75
2022-10-20T03:48:43.818Z,96402.13
2022-10-20T03:51:13.737Z,96397.22
2022-10-20T03:53:40.537Z,96401.91
2022-10-20T03:56:09.721Z,96408.47
2022-10-20T03:58:36.973Z,96409.47
2022-10-20T04:01:04.311Z,96408.25
2022-10-20T04:03:31.003Z,96398.03
2022-10-20T04:05:57.371Z,96402.13
2022-10-20T04:08:23.747Z,96397.22
2022-10-20T04:10:50.441Z,96400.47
2022-10-20T04:13:16.755Z,96410.28
2022-10-20T04:15:43.555Z,96396.81
2022-10-20T04:18:10.239Z,96392.34
2022-10-20T04:20:38.319Z,96390.28
2022-10-20T04:23:06.984Z,96392.31
2022-10-20T04:25:33.770Z,96384.97
2022-10-20T04:28:00.296Z,96398.44
2022-10-20T04:30:26.914Z,96390.06
2022-10-20T04:32:53.848Z,96388.63
2022-10-20T04:35:20.145Z,96392.13
2022-10-20T04:37:46.444Z,96381.72
2022-10-20T04:40:13.306Z,96378.84
2022-10-20T04:42:39.615Z,96379.88
2022-10-20T04:45:06.399Z,96376.22
2022-10-20T04:47:34.506Z,96375.59
2022-10-20T04:50:01.100Z,96365.78
2022-10-20T04:52:28.983Z,96362.28
2022-10-20T04:54:55.835Z,96362.72
2022-10-20T04:57:22.714Z,96361.69
2022-10-20T04:59:49.031Z,96350.19
2022-10-20T05:02:15.799Z,96349.84
2022-10-20T05:04:42.148Z,96338.16
2022-10-20T05:07:08.507Z,96334.69
2022-10-20T05:09:35.415Z,96328.97
2022-10-20T05:12:02.374Z,96323.28
2022-10-20T05:14:28.763Z,96326.53
2022-10-20T05:16:55.110Z,96323.50
2022-10-20T05:19:21.991Z,96330.63
2022-10-20T05:21:48.343Z,96333.53
2022-10-20T05:24:19.849Z,96324.97
2022-10-20T05:26:48.490Z,96331.25
2022-10-20T05:29:15.379Z,96333.13
2022-10-20T05:31:43.718Z,96333.69
2022-10-20T05:34:11.463Z,96326.94
2022-10-20T05:36:38.904Z,96330.63
2022-10-20T05:39:05.595Z,96325.75
2022-10-20T05:41:36.465Z,96322.88
2022-10-20T05:44:07.386Z,96318.81
2022-10-20T05:46:35.602Z,96321.72
2022-10-20T05:49:03.187Z,96320.22
2022-10-20T05:51:32.355Z,96319.84
2022-10-20T05:53:59.309Z,96330.47
2022-10-20T05:56:27.171Z,96328.78
2022-10-20T05:58:54.301Z,96336.34
2022-10-20T06:01:24.423Z,96335.31
2022-10-20T06:03:53.594Z,96337.59
2022-10-20T06:06:22.060Z,96333.50
2022-10-20T06:08:48.809Z,96329.84
2022-10-20T06:11:15.675Z,96320.84
2022-10-20T06:13:42.406Z,96325.94
2022-10-20T06:16:11.704Z,96325.69
2022-10-20T06:18:38.779Z,96322.84
2022-10-20T06:21:11.791Z,96337.53
2022-10-20T06:23:38.182Z,96330.19
2022-10-20T06:26:11.531Z,96331.44
2022-10-20T06:28:39.568Z,96328.47
2022-10-20T06:31:18.650Z,96329.56
2022-10-20T06:33:45.962Z,96323.28
2022-10-20T06:36:13.975Z,96321.81
2022-10-20T06:38:41.102Z,96325.66
2022-10-20T06:41:14.579Z,96333.03
2022-10-20T06:43:41.362Z,96331.19
2022-10-20T06:46:10.687Z,96324.06
2022-10-20T06:48:37.641Z,96337.09
2022-10-20T06:51:07.063Z,96335.28
2022-10-20T06:53:36.027Z,96339.91
2022-10-20T06:56:06.254Z,96348.97
2022-10-20T06:58:37.627Z,96335.03
2022-10-20T07:01:12.618Z,96333.63
2022-10-20T07:03:39.740Z,96328.44
2022-10-20T07:06:07.780Z,96338.59
2022-10-20T07:08:36.103Z,96319.78
2022-10-20T07:11:08.821Z,96312.38
2022-10-20T07:13:37.217Z,96312.91
2022-10-20T07:16:05.528Z,96310.44
2022-10-20T07:18:32.803Z,96319.66
2022-10-20T07:21:01.298Z,96305.28
2022-10-20T07:23:29.226Z,96312.00
2022-10-20T07:26:05.197Z,96318.28
2022-10-20T07:28:33.103Z,96313.00
2022-10-20T07:31:08.364Z,96320.69
2022-10-20T07:33:35.462Z,96320.28
2022-10-20T07:36:01.949Z,96329.41
2022-10-20T07:38:28.428Z,96330.63
2022-10-20T07:41:01.859Z,96325.06
2022-10-20T07:43:28.214Z,96314.31
2022-10-20T07:45:54.527Z,96329.22
2022-10-20T07:48:21.364Z,96313.28
2022-10-20T07:50:47.731Z,96318.38
2022-10-20T07:53:14.040Z,96313.16
2022-10-20T07:55:40.664Z,96303.09
2022-10-20T07:58:07.051Z,96304.97
2022-10-20T08:00:33.416Z,96312.78
2022-10-20T08:03:00.174Z,96320.34
2022-10-20T08:05:26.759Z,96315.50
2022-10-20T08:07:53.130Z,96312.34
2022-10-20T08:10:19.824Z,96318.34
2022-10-20T08:12:46.187Z,96317.63
2022-10-20T08:15:17.661Z,96310.66
2022-10-20T08:17:44.476Z,96304.19
2022-10-20T08:20:13.720Z,96301.03
2022-10-20T08:22:40.168Z,96295.13
2022-10-20T08:25:07.822Z,96296.88
2022-10-20T08:27:34.183Z,96298.97
2022-10-20T08:30:19.130Z,96290.09
2022-10-20T08:32:51.481Z,96292.94
2022-10-20T08:35:17.928Z,96293.72
2022-10-20T08:37:44.828Z,96296.22
2022-10-20T08:40:16.361Z,96294.59
2022-10-20T08:42:46.742Z,96291.06
2022-10-20T08:45:20.013Z,96288.31
2022-10-20T08:47:49.423Z,96286.25
2022-10-20T08:50:17.599Z,96283.97
2022-10-20T08:52:46.159Z,96280.41
2022-10-20T08:55:24.975Z,96282.47
2022-10-20T08:57:51.603Z,96285.84
2022-10-20T09:00:22.839Z,96279.75
2022-10-20T09:02:51.795Z,96272.38
2022-10-20T09:05:24.260Z,96275.94
2022-10-20T09:07:52.416Z,96281.75
2022-10-20T09:10:40.896Z,96291.81
2022-10-20T09:13:32.900Z,96279.91
2022-10-20T09:16:35.056Z,96274.78
2022-10-20T09:19:19.055Z,96284.06
2022-10-20T09:21:50.627Z,96286.91
2022-10-20T09:24:20.383Z,96282.28
2022-10-20T09:27:04.480Z,96278.75
2022-10-20T09:29:36.835Z,96283.19
2022-10-20T09:32:16.736Z,96278.94
2022-10-20T09:34:50.004Z,96275.50
2022-10-20T09:37:19.747Z,96264.22
2022-10-20T09:39:57.162Z,96273.75
2022-10-20T09:42:38.130Z,96275.94
2022-10-20T09:45:21.976Z,96274.59
2022-10-20T09:47:54.360Z,96286.88
2022-10-20T09:50:28.816Z,96301.78
2022-10-20T09:52:57.332Z,96302.44
2022-10-20T09:55:33.137Z,96296.91
2022-10-20T09:58:02.433Z,96292.84
2022-10-20T10:00:38.640Z,96297.16
2022-10-20T10:03:21.506Z,96294.03
2022-10-20T10:06:00.886Z,96306.84
2022-10-20T10:08:45.867Z,96307.06
2022-10-20T10:11:16.535Z,96290.66
2022-10-20T10:13:46.006Z,96289.16
2022-10-20T10:16:15.277Z,96301.66
2022-10-20T10:18:48.364Z,96311.44
2022-10-20T10:21:17.279Z,96318.19
2022-10-20T10:23:56.291Z,96314.38
2022-10-20T10:26:45.189Z,96315.72
2022-10-20T10:29:40.864Z,96306.56
2022-10-20T10:32:27.535Z,96298.97
2022-10-20T10:35:05.760Z,96287.06
2022-10-20T10:37:34.763Z,96281.88
2022-10-20T10:40:11.951Z,96288.22
2022-10-20T10:43:04.700Z,96293.84
2022-10-20T10:45:57.039Z,96289.25
2022-10-20T10:48:32.924Z,96278.25
2022-10-20T10:51:05.574Z,96281.00
2022-10-20T10:53:44.718Z,96285.63
2022-10-20T10:56:27.441Z,96280.28
2022-10-20T10:58:56.404Z,96284.66
2022-10-20T11:01:52.680Z,96277.75
2022-10-20T11:04:40.591Z,96265.97
2022-10-20T11:07:33.828Z,96264.38
2022-10-20T11:10:23.305Z,96258.75
2022-10-20T11:13:12.124Z,96262.53
2022-10-20T11:16:12.272Z,96265.22
2022-10-20T11:18:56.542Z,96256.88
2022-10-20T11:21:38.145Z,96256.44
2022-10-20T11:24:31.307Z,96251.00
2022-10-20T11:27:13.708Z,96264.97
2022-10-20T11:29:45.402Z,96270.00
2022-10-20T11:35:14.159Z,96273.63
2022-10-20T11:37:50.855Z,96280.03
2022-10-20T11:40:30.415Z,96277.50
2022-10-20T11:43:08.776Z,96271.06
2022-10-20T11:46:00.039Z,96274.78
2022-10-20T11:48:42.676Z,96273.06
2022-10-20T11:51:31.497Z,96267.41
2022-10-20T11:54:31.283Z,96259.41
2022-10-20T11:57:09.214Z,96269.22
2022-10-20T12:00:13.614Z,96263.06
2022-10-20T12:02:53.072Z,96270.25
2022-10-20T12:05:41.076Z,96266.66
2022-10-20T12:08:40.946Z,96276.97
2022-10-20T12:11:32.215Z,96282.41
2022-10-20T12:14:18.149Z,96288.47
2022-10-20T12:16:59.598Z,96283.81
2022-10-20T12:19:27.532Z,96272.91
2022-10-20T12:22:03.007Z,96266.22
2022-10-20T12:24:36.885Z,96262.25
2022-10-20T12:27:09.919Z,96265.38
2022-10-20T12:29:36.191Z,96272.03
2022-10-20T12:32:21.885Z,96264.38
2022-10-20T12:34:50.920Z,96253.25
2022-10-20T12:37:31.501Z,96241.59
2022-10-20T12:40:06.876Z,96231.22
2022-10-20T12:42:40.536Z,96215.38
2022-10-20T12:45:25.883Z,96224.03
2022-10-20T12:47:57.289Z,96216.25
2022-10-20T12:50:48.147Z,96206.38
2022-10-20T12:53:17.408Z,96204.75
2022-10-20T12:56:10.838Z,96200.63
2022-10-20T12:59:08.739Z,96188.38
2022-10-20T13:02:29.844Z,96185.91
2022-10-20T13:05:00.347Z,96198.59
2022-10-20T13:07:48.895Z,96205.56
2022-10-20T13:10:27.807Z,96203.97
2022-10-20T13:13:20.105Z,96191.63
2022-10-20T13:15:54.123Z,96183.06
2022-10-20T13:18:35.881Z,96172.34
2022-10-20T13:21:22.677Z,96168.16
2022-10-20T13:24:22.451Z,96179.06
2022-10-20T13:26:54.172Z,96184.44
2022-10-20T13:29:43.703Z,96177.69
2022-10-20T13:32:22.205Z,96168.16
2022-10-20T13:35:08.774Z,96178.03
2022-10-20T13:37:56.607Z,96204.75
2022-10-20T13:40:37.427Z,96207.50
2022-10-20T13:43:19.094Z,96196.84
2022-10-20T13:46:07.729Z,96180.84
2022-10-20T13:49:08.437Z,96206.34
2022-10-20T13:51:44.268Z,96202.34
2022-10-20T13:54:22.927Z,96175.72
2022-10-20T13:56:50.691Z,96185.06
2022-10-20T13:59:26.155Z,96178.16
2022-10-20T14:02:02.173Z,96157.38
2022-10-20T14:04:31.651Z,96170.72
2022-10-20T14:07:08.858Z,96171.78
2022-10-20T14:09:35.600Z,96164.81
2022-10-20T14:12:19.403Z,96173.50
2022-10-20T14:14:45.829Z,96163.06
2022-10-20T14:17:20.518Z,96171.47
2022-10-20T14:19:47.008Z,96166.63
2022-10-20T14:22:23.391Z,96151.97
2022-10-20T14:24:54.730Z,96155.84
2022-10-20T14:27:31.040Z,96150.38
2022-10-20T14:29:58.549Z,96168.16
2022-10-20T14:32:27.363Z,96159.91
2022-10-20T14:34:56.363Z,96159.34
2022-10-20T14:37:37.214Z,96157.47
2022-10-20T14:40:21.250Z,96147.50
2022-10-20T14:42:47.619Z,96133.69
2022-10-20T14:45:26.675Z,96133.78
2022-10-20T14:47:54.363Z,96146.00
2022-10-20T14:50:36.441Z,96146.00
2022-10-20T14:53:30.664Z,96141.66
2022-10-20T14:56:01.151Z,96147.91
2022-10-20T14:58:30.918Z,96147.47
2022-10-20T15:01:19.828Z,96145.59
2022-10-20T15:03:46.585Z,96144.13
2022-10-20T15:06:17.868Z,96138.22
2022-10-20T15:08:54.200Z,96129.47
2022-10-20T15:11:26.297Z,96136.34
2022-10-20T15:13:55.481Z,96126.63
2022-10-20T15:16:34.630Z,96133.56
2022-10-20T15:19:29.904Z,96118.22
2022-10-20T15:22:00.175Z,96114.34
2022-10-20T15:24:27.183Z,96124.91
2022-10-20T15:26:54.039Z,96123.72
2022-10-20T15:29:20.669Z,96132.03
2022-10-20T15:31:47.415Z,96115.41
2022-10-20T15:34:14.571Z,96110.88
2022-10-20T15:36:42.341Z,96100.72
2022-10-20T15:39:09.643Z,96102.50
2022-10-20T15:41:37.138Z,96104.88
2022-10-20T15:44:19.347Z,96119.06
2022-10-20T15:46:46.492Z,96115.66
2022-10-20T15:49:13.877Z,96112.44
2022-10-20T15:51:43.465Z,96095.97
2022-10-20T15:54:21.183Z,96085.97
2022-10-20T15:56:47.639Z,96093.81
2022-10-20T15:59:14.012Z,96090.88
2022-10-20T16:01:40.886Z,96074.41
2022-10-20T16:04:19.518Z,96081.84
2022-10-20T16:06:46.556Z,96086.00
2022-10-20T16:09:15.831Z,96094.03
2022-10-20T16:11:42.829Z,96092.19
2022-10-20T16:14:09.752Z,96094.03
2022-10-20T16:16:36.115Z,96112.88
2022-10-20T16:19:03.035Z,96132.09
2022-10-20T16:21:29.792Z,96119.09
2022-10-20T16:23:56.195Z,96128.88
2022-10-20T16:26:22.508Z,96129.31
2022-10-20T16:28:48.982Z,96117.97
2022-10-20T16:31:16.388Z,96129.31
2022-10-20T16:33:43.066Z,96123.03
2022-10-20T16:36:12.448Z,96122.72
2022-10-20T16:38:40.261Z,96124.44
2022-10-20T16:41:10.969Z,96107.34
2022-10-20T16:43:39.351Z,96101.94
2022-10-20T16:46:07.456Z,96108.16
2022-10-20T16:48:36.954Z,96117.03
2022-10-20T16:51:09.832Z,96116.16
2022-10-20T16:53:36.714Z,96130.41
2022-10-20T16:56:04.108Z,96133.81
2022-10-20T16:58:31.109Z,96148.97
2022-10-20T17:00:59.798Z,96140.84
2022-10-20T17:03:26.208Z,96139.06
2022-10-20T17:05:57.943Z,96123.38
2022-10-20T17:08:25.808Z,96113.34
2022-10-20T17:10:59.916Z,96107.59
2022-10-20T17:13:27.125Z,96115.34
2022-10-20T17:15:53.730Z,96122.94
2022-10-20T17:18:21.512Z,96115.25
2022-10-20T17:20:53.067Z,96112.44
2022-10-20T17:23:20.467Z,96102.53
2022-10-20T17:25:47.232Z,96100.63
2022-10-20T17:28:13.542Z,96101.13
2022-10-20T17:30:44.306Z,96089.59
2022-10-20T17:33:11.279Z,96079.63
2022-10-20T17:35:38.314Z,96077.41
2022-10-20T17:38:06.276Z,96082.50
2022-10-20T17:40:38.151Z,96078.91
2022-10-20T17:43:05.091Z,96072.38
2022-10-20T17:45:34.942Z,96071.59
2022-10-20T17:48:05.030Z,96083.84
2022-10-20T17:50:31.350Z,96091.38
2022-10-20T17:53:00.922Z,96083.63
2022-10-20T17:55:27.505Z,96078.25
2022-10-20T17:57:53.825Z,96064.88
2022-10-20T18:00:31.749Z,96051.06
2022-10-20T18:03:04.048Z,96047.00
2022-10-20T18:05:30.845Z,96047.03
2022-10-20T18:07:57.156Z,96042.19
2022-10-20T18:10:23.481Z,96032.06
2022-10-20T18:12:51.735Z,96040.75
2022-10-20T18:15:18.081Z,96028.13
2022-10-20T18:17:44.407Z,96023.72
2022-10-20T18:20:12.953Z,96027.75
2022-10-20T18:22:40.302Z,96031.53
2022-10-20T18:25:07.516Z,96029.63
2022-10-20T18:27:33.884Z,96036.34
2022-10-20T18:30:00.553Z,96037.97
2022-10-20T18:32:26.855Z,96035.97
2022-10-20T18:34:53.699Z,96034.56
2022-10-20T18:37:20.441Z,96050.16
2022-10-20T18:39:47.195Z,96057.06
2022-10-20T18:42:13.576Z,96049.25
2022-10-20T18:44:39.956Z,96052.00
2022-10-20T18:47:06.283Z,96054.72
2022-10-20T18:49:32.731Z,96054.06
2022-10-20T18:52:00.019Z,96054.56
2022-10-20T18:54:27.997Z,96051.41
2022-10-20T18:56:54.384Z,96062.84
2022-10-20T18:59:22.974Z,96067.59
2022-10-20T19:01:49.333Z,96076.28
2022-10-20T19:04:16.082Z,96081.09
2022-10-20T19:06:45.358Z,96080.22
2022-10-20T19:09:14.777Z,96087.97
2022-10-20T19:11:41.750Z,96091.16
2022-10-20T19:14:13.093Z,96102.97
2022-10-20T19:16:41.496Z,96109.50
2022-10-20T19:19:08.852Z,96121.69
2022-10-20T19:21:36.747Z,96123.31
2022-10-20T19:24:21.475Z,96127.38
2022-10-20T19:27:24.582Z,96134.19
2022-10-20T19:29:44.404Z,96128.31
2022-10-20T19:32:12.360Z,96128.56
2022-10-20T19:34:40.531Z,96115.25
2022-10-20T19:37:07.413Z,96109.50
2022-10-20T19:39:38.051Z,96091.09
2022-10-20T19:42:06.897Z,96079.50
2022-10-20T19:44:34.170Z,96073.72
2022-10-20T19:47:01.490Z,96064.72
2022-10-20T19:49:28.328Z,96060.41
2022-10-20T19:51:54.958Z,96065.59
2022-10-20T19:54:21.600Z,96059.38
2022-10-20T19:56:48.027Z,96070.03
2022-10-20T19:59:14.394Z,96082.34
2022-10-20T20:01:40.828Z,96092.41
2022-10-20T20:04:07.421Z,96107.25
2022-10-20T20:06:35.739Z,96104.44
2022-10-20T20:09:05.637Z,96099.44
2022-10-20T20:11:34.303Z,96098.13
2022-10-20T20:14:06.409Z,96104.78
2022-10-20T20:16:33.738Z,96108.25
2022-10-20T20:19:00.179Z,96117.03
2022-10-20T20:21:27.068Z,96124.69
2022-10-20T20:23:59.416Z,96131.97
2022-10-20T20:26:31.692Z,96136.31
2022-10-20T20:28:58.767Z,96138.91
2022-10-20T20:31:26.063Z,96146.31
2022-10-20T20:33:53.279Z,96149.59
2022-10-20T20:36:19.966Z,96151.34
2022-10-20T20:38:46.442Z,96156.13
2022-10-20T20:41:18.435Z,96149.69
2022-10-20T20:43:45.280Z,96148.28
2022-10-20T20:46:14.921Z,96154.03
2022-10-20T20:48:42.162Z,96147.16
2022-10-20T20:51:08.867Z,96148.56
2022-10-20T20:53:36.345Z,96151.69
2022-10-20T20:56:06.446Z,96136.94
2022-10-20T20:58:33.764Z,96135.53
2022-10-20T21:01:15.114Z,96148.16
2022-10-20T21:03:41.626Z,96131.13
2022-10-20T21:06:10.531Z,96130.97
2022-10-20T21:08:40.785Z,96107.63
2022-10-20T21:11:18.693Z,96107.78
2022-10-20T21:13:47.185Z,96100.41
2022-10-20T21:16:30.319Z,96079.25
2022-10-20T21:19:02.978Z,96077.41
2022-10-20T21:21:32.431Z,96096.97
2022-10-20T21:24:00.312Z,96098.63
2022-10-20T21:26:28.358Z,96111.25
2022-10-20T21:28:54.910Z,96115.69
2022-10-20T21:31:23.198Z,96106.53
2022-10-20T21:33:51.851Z,96096.31
2022-10-20T21:36:20.102Z,96083.84
2022-10-20T21:38:46.850Z,96081.56
2022-10-20T21:41:19.376Z,96071.06
2022-10-20T21:43:49.218Z,96069.44
2022-10-20T21:46:24.684Z,96070.19
2022-10-20T21:48:53.733Z,96062.06
2022-10-20T21:51:23.280Z,96064.28
2022-10-20T21:53:54.262Z,96070.03
2022-10-20T21:56:20.570Z,96080.72
2022-10-20T21:58:46.884Z,96066.47
2022-10-20T22:01:18.809Z,96062.34
2022-10-20T22:03:46.995Z,96061.75
2022-10-20T22:06:15.872Z,96066.78
2022-10-20T22:08:48.445Z,96060.28
2022-10-20T22:11:18.110Z,96056.72
2022-10-20T22:13:45.174Z,96041.66
2022-10-20T22:16:14.799Z,96013.88
2022-10-20T22:18:41.594Z,95998.56
2022-10-20T22:21:13.282Z,95994.22
2022-10-20T22:23:41.578Z,96022.13
2022-10-20T22:26:08.674Z,96022.00
2022-10-20T22:28:35.203Z,96019.94
2022-10-20T22:33:33.229Z,96020.16
2022-10-20T22:35:59.776Z,96033.25
2022-10-20T22:38:26.444Z,96039.00
2022-10-20T22:40:53.176Z,96033.19
2022-10-20T22:43:19.478Z,96021.63
2022-10-20T22:45:45.795Z,96021.09
2022-10-20T22:48:12.666Z,96038.13
2022-10-20T22:50:38.971Z,96045.59
2022-10-20T22:53:05.299Z,96058.09
2022-10-20T22:55:32.021Z,96048.41
2022-10-20T23:00:29.719Z,96040.63
2022-10-20T23:02:56.567Z,96041.13
2022-10-20T23:05:22.942Z,96053.00
2022-10-20T23:07:49.319Z,96054.41
2022-10-20T23:10:16.516Z,96060.09
2022-10-20T23:12:43.083Z,96059.94
2022-10-20T23:15:10.530Z,96069.25
2022-10-20T23:17:37.727Z,96076.59
2022-10-20T23:20:04.964Z,96070.94
2022-10-20T23:22:31.678Z,96066.16
2022-10-20T23:24:58.022Z,96058.16
2022-10-20T23:27:24.379Z,96076.53
2022-10-20T23:29:51.087Z,96052.13
2022-10-20T23:32:17.404Z,96044.91
2022-10-20T23:34:43.724Z,96055.56
2022-10-20T23:37:10.336Z,96045.56
2022-10-20T23:39:36.680Z,96046.09
2022-10-20T23:42:06.374Z,96058.78
2022-10-20T23:44:34.208Z,96047.69
2022-10-20T23:47:00.762Z,96033.38
2022-10-20T23:49:27.131Z,96035.88
2022-10-20T23:51:54.031Z,96036.47
2022-10-20T23:54:20.667Z,96040.34
2022-10-20T23:56:47.039Z,96051.69
2022-10-20T23:59:14.082Z,96053.56
